Terminal Aerodrome Forecast
Issued by NWS

Home | Current Version | Previous Version | Text Only | Print | Product List | Glossary On
Versions: 1 2 3 4 5 6 7 8 9 10 11 12 13 14
000
FTUS43 KJKL 251121
TAFSME
TAF
KSME 251121Z 2512/2612 VRB03KT P6SM SCT200
      TEMPO 2512/2513 5SM BR SCT003=

USA.gov is the U.S. government's official web portal to all federal, state and local government web resources and services.